sensor_id;sensor_type;location;lat;lon;timestamp;temperature;humidity
25825;DHT22;13658;44.534;18.694;2022-08-01T00:01:41;15.40;99.90
25825;DHT22;13658;44.534;18.694;2022-08-01T00:04:07;15.30;99.90
25825;DHT22;13658;44.534;18.694;2022-08-01T00:06:33;15.20;99.90
25825;DHT22;13658;44.534;18.694;2022-08-01T00:08:59;15.20;99.90
25825;DHT22;13658;44.534;18.694;2022-08-01T00:11:25;15.20;99.90
25825;DHT22;13658;44.534;18.694;2022-08-01T00:13:51;15.00;99.90
25825;DHT22;13658;44.534;18.694;2022-08-01T00:16:17;14.80;99.90
25825;DHT22;13658;44.534;18.694;2022-08-01T00:18:43;14.90;99.90
25825;DHT22;13658;44.534;18.694;2022-08-01T00:21:08;14.90;99.90
25825;DHT22;13658;44.534;18.694;2022-08-01T00:23:34;14.90;99.90
25825;DHT22;13658;44.534;18.694;2022-08-01T00:26:01;15.10;99.90
25825;DHT22;13658;44.534;18.694;2022-08-01T00:28:27;15.20;99.90
25825;DHT22;13658;44.534;18.694;2022-08-01T00:30:53;15.10;99.90
25825;DHT22;13658;44.534;18.694;2022-08-01T00:33:19;15.00;99.90
25825;DHT22;13658;44.534;18.694;2022-08-01T00:35:45;15.00;99.90
25825;DHT22;13658;44.534;18.694;2022-08-01T00:38:11;14.90;99.90
25825;DHT22;13658;44.534;18.694;2022-08-01T00:40:37;14.90;99.90
25825;DHT22;13658;44.534;18.694;2022-08-01T00:43:03;14.80;99.90
25825;DHT22;13658;44.534;18.694;2022-08-01T00:45:29;14.70;99.90
25825;DHT22;13658;44.534;18.694;2022-08-01T00:47:55;14.60;99.90
25825;DHT22;13658;44.534;18.694;2022-08-01T00:50:21;14.50;99.90
25825;DHT22;13658;44.534;18.694;2022-08-01T00:52:49;14.30;99.90
25825;DHT22;13658;44.534;18.694;2022-08-01T00:55:15;14.40;99.90
25825;DHT22;13658;44.534;18.694;2022-08-01T00:57:42;14.30;99.90
25825;DHT22;13658;44.534;18.694;2022-08-01T01:00:09;14.40;99.90
25825;DHT22;13658;44.534;18.694;2022-08-01T01:02:35;14.60;99.90
25825;DHT22;13658;44.534;18.694;2022-08-01T01:05:01;14.60;99.90
25825;DHT22;13658;44.534;18.694;2022-08-01T01:07:59;14.60;99.90
25825;DHT22;13658;44.534;18.694;2022-08-01T01:10:36;14.60;99.90
25825;DHT22;13658;44.534;18.694;2022-08-01T01:15:46;14.70;99.90
25825;DHT22;13658;44.534;18.694;2022-08-01T01:18:21;14.70;99.90
25825;DHT22;13658;44.534;18.694;2022-08-01T01:21:00;14.70;99.90
25825;DHT22;13658;44.534;18.694;2022-08-01T01:26:37;14.70;99.90
25825;DHT22;13658;44.534;18.694;2022-08-01T01:32:19;14.60;99.90
25825;DHT22;13658;44.534;18.694;2022-08-01T01:34:49;14.60;99.90
25825;DHT22;13658;44.534;18.694;2022-08-01T01:37:18;14.50;99.90
25825;DHT22;13658;44.534;18.694;2022-08-01T01:39:46;14.50;99.90
25825;DHT22;13658;44.534;18.694;2022-08-01T01:42:15;14.40;99.90
25825;DHT22;13658;44.534;18.694;2022-08-01T01:44:46;14.40;99.90
25825;DHT22;13658;44.534;18.694;2022-08-01T01:47:14;14.40;99.90
25825;DHT22;13658;44.534;18.694;2022-08-01T01:49:44;14.30;99.90
25825;DHT22;13658;44.534;18.694;2022-08-01T01:52:14;14.10;99.90
25825;DHT22;13658;44.534;18.694;2022-08-01T01:54:46;14.00;99.90
25825;DHT22;13658;44.534;18.694;2022-08-01T01:57:14;14.10;99.90
25825;DHT22;13658;44.534;18.694;2022-08-01T01:59:42;14.20;99.90
25825;DHT22;13658;44.534;18.694;2022-08-01T02:02:10;14.30;99.90
25825;DHT22;13658;44.534;18.694;2022-08-01T02:04:40;14.30;99.90
25825;DHT22;13658;44.534;18.694;2022-08-01T02:07:10;14.20;99.90
25825;DHT22;13658;44.534;18.694;2022-08-01T02:09:37;14.10;99.90
25825;DHT22;13658;44.534;18.694;2022-08-01T02:12:05;14.00;99.90
25825;DHT22;13658;44.534;18.694;2022-08-01T02:14:34;14.00;99.90
25825;DHT22;13658;44.534;18.694;2022-08-01T02:17:03;14.00;99.90
25825;DHT22;13658;44.534;18.694;2022-08-01T02:19:30;14.00;99.90
25825;DHT22;13658;44.534;18.694;2022-08-01T02:22:01;14.10;99.90
25825;DHT22;13658;44.534;18.694;2022-08-01T02:24:56;14.10;99.90
25825;DHT22;13658;44.534;18.694;2022-08-01T02:27:30;14.10;99.90
25825;DHT22;13658;44.534;18.694;2022-08-01T02:30:06;14.20;99.90
25825;DHT22;13658;44.534;18.694;2022-08-01T02:32:43;14.20;99.90
25825;DHT22;13658;44.534;18.694;2022-08-01T02:35:25;14.10;99.90
25825;DHT22;13658;44.534;18.694;2022-08-01T02:37:53;14.10;99.90
25825;DHT22;13658;44.534;18.694;2022-08-01T02:40:20;14.00;99.90
25825;DHT22;13658;44.534;18.694;2022-08-01T02:42:51;14.00;99.90
25825;DHT22;13658;44.534;18.694;2022-08-01T02:45:19;14.00;99.90
25825;DHT22;13658;44.534;18.694;2022-08-01T02:47:48;13.70;99.90
25825;DHT22;13658;44.534;18.694;2022-08-01T02:50:16;13.60;99.90
25825;DHT22;13658;44.534;18.694;2022-08-01T02:52:46;13.40;99.90
25825;DHT22;13658;44.534;18.694;2022-08-01T02:55:14;13.40;99.90
25825;DHT22;13658;44.534;18.694;2022-08-01T02:57:41;13.50;99.90
25825;DHT22;13658;44.534;18.694;2022-08-01T03:00:09;13.70;99.90
25825;DHT22;13658;44.534;18.694;2022-08-01T03:02:36;13.70;99.90
25825;DHT22;13658;44.534;18.694;2022-08-01T03:05:02;13.70;99.90
25825;DHT22;13658;44.534;18.694;2022-08-01T03:07:29;13.60;99.90
25825;DHT22;13658;44.534;18.694;2022-08-01T03:09:56;13.70;99.90
25825;DHT22;13658;44.534;18.694;2022-08-01T03:12:27;13.80;99.90
25825;DHT22;13658;44.534;18.694;2022-08-01T03:14:55;13.80;99.90
25825;DHT22;13658;44.534;18.694;2022-08-01T03:17:24;13.80;99.90
25825;DHT22;13658;44.534;18.694;2022-08-01T03:19:51;13.90;99.90
25825;DHT22;13658;44.534;18.694;2022-08-01T03:22:18;13.90;99.90
25825;DHT22;13658;44.534;18.694;2022-08-01T03:24:49;13.70;99.90
25825;DHT22;13658;44.534;18.694;2022-08-01T03:27:18;13.80;99.90
25825;DHT22;13658;44.534;18.694;2022-08-01T03:29:45;13.80;99.90
25825;DHT22;13658;44.534;18.694;2022-08-01T03:32:13;13.90;99.90
25825;DHT22;13658;44.534;18.694;2022-08-01T03:34:40;13.90;99.90
25825;DHT22;13658;44.534;18.694;2022-08-01T03:37:54;13.80;99.90
25825;DHT22;13658;44.534;18.694;2022-08-01T03:40:20;13.80;99.90
25825;DHT22;13658;44.534;18.694;2022-08-01T03:42:52;13.70;99.90
25825;DHT22;13658;44.534;18.694;2022-08-01T03:45:23;13.70;99.90
25825;DHT22;13658;44.534;18.694;2022-08-01T03:48:05;13.60;99.90
25825;DHT22;13658;44.534;18.694;2022-08-01T03:50:33;13.50;99.90
25825;DHT22;13658;44.534;18.694;2022-08-01T03:53:02;13.50;99.90
25825;DHT22;13658;44.534;18.694;2022-08-01T03:55:28;13.50;99.90
25825;DHT22;13658;44.534;18.694;2022-08-01T03:57:56;13.40;99.90
25825;DHT22;13658;44.534;18.694;2022-08-01T04:00:22;13.40;99.90
25825;DHT22;13658;44.534;18.694;2022-08-01T04:02:50;13.30;99.90
25825;DHT22;13658;44.534;18.694;2022-08-01T04:05:17;13.30;99.90
25825;DHT22;13658;44.534;18.694;2022-08-01T04:07:50;13.30;99.90
25825;DHT22;13658;44.534;18.694;2022-08-01T04:10:23;13.30;99.90
25825;DHT22;13658;44.534;18.694;2022-08-01T04:12:50;13.30;99.90
25825;DHT22;13658;44.534;18.694;2022-08-01T04:15:16;13.20;99.90
25825;DHT22;13658;44.534;18.694;2022-08-01T04:17:42;13.20;99.90
25825;DHT22;13658;44.534;18.694;2022-08-01T04:20:09;13.30;99.90
25825;DHT22;13658;44.534;18.694;2022-08-01T04:22:38;13.40;99.90
25825;DHT22;13658;44.534;18.694;2022-08-01T04:25:11;13.40;99.90
25825;DHT22;13658;44.534;18.694;2022-08-01T04:27:42;13.40;99.90
25825;DHT22;13658;44.534;18.694;2022-08-01T04:30:16;13.50;99.90
25825;DHT22;13658;44.534;18.694;2022-08-01T04:32:49;13.60;99.90
25825;DHT22;13658;44.534;18.694;2022-08-01T04:35:21;13.60;99.90
25825;DHT22;13658;44.534;18.694;2022-08-01T04:37:54;13.80;99.90
25825;DHT22;13658;44.534;18.694;2022-08-01T04:40:24;14.00;99.90
25825;DHT22;13658;44.534;18.694;2022-08-01T04:42:52;14.40;99.90
25825;DHT22;13658;44.534;18.694;2022-08-01T04:45:18;14.70;99.90
25825;DHT22;13658;44.534;18.694;2022-08-01T04:47:45;15.00;99.90
25825;DHT22;13658;44.534;18.694;2022-08-01T04:50:13;15.20;99.90
25825;DHT22;13658;44.534;18.694;2022-08-01T04:52:39;15.50;99.90
25825;DHT22;13658;44.534;18.694;2022-08-01T04:55:08;15.80;99.90
25825;DHT22;13658;44.534;18.694;2022-08-01T04:57:39;16.20;99.90
25825;DHT22;13658;44.534;18.694;2022-08-01T05:00:06;16.30;99.90
25825;DHT22;13658;44.534;18.694;2022-08-01T05:02:33;16.60;99.90
25825;DHT22;13658;44.534;18.694;2022-08-01T05:04:59;16.90;99.90
25825;DHT22;13658;44.534;18.694;2022-08-01T05:07:25;17.20;99.90
25825;DHT22;13658;44.534;18.694;2022-08-01T05:09:51;17.40;99.90
25825;DHT22;13658;44.534;18.694;2022-08-01T05:12:19;17.50;99.90
25825;DHT22;13658;44.534;18.694;2022-08-01T05:14:46;17.80;99.90
25825;DHT22;13658;44.534;18.694;2022-08-01T05:17:12;17.80;99.90
25825;DHT22;13658;44.534;18.694;2022-08-01T05:19:39;18.10;99.90
25825;DHT22;13658;44.534;18.694;2022-08-01T05:22:07;18.30;99.90
25825;DHT22;13658;44.534;18.694;2022-08-01T05:24:38;18.50;99.90
25825;DHT22;13658;44.534;18.694;2022-08-01T05:27:05;18.70;99.90
25825;DHT22;13658;44.534;18.694;2022-08-01T05:29:33;18.80;99.90
25825;DHT22;13658;44.534;18.694;2022-08-01T05:31:59;18.90;99.90
25825;DHT22;13658;44.534;18.694;2022-08-01T05:34:26;19.10;99.90
25825;DHT22;13658;44.534;18.694;2022-08-01T05:36:52;19.30;99.90
25825;DHT22;13658;44.534;18.694;2022-08-01T05:39:18;19.60;99.90
25825;DHT22;13658;44.534;18.694;2022-08-01T05:41:44;19.80;99.90
25825;DHT22;13658;44.534;18.694;2022-08-01T05:44:10;20.10;99.90
25825;DHT22;13658;44.534;18.694;2022-08-01T05:46:36;20.10;99.90
25825;DHT22;13658;44.534;18.694;2022-08-01T05:49:04;20.20;99.90
25825;DHT22;13658;44.534;18.694;2022-08-01T05:51:30;20.40;99.90
25825;DHT22;13658;44.534;18.694;2022-08-01T05:53:58;20.60;99.90
25825;DHT22;13658;44.534;18.694;2022-08-01T05:56:24;20.70;99.90
25825;DHT22;13658;44.534;18.694;2022-08-01T05:58:50;20.90;99.90
25825;DHT22;13658;44.534;18.694;2022-08-01T06:01:17;21.10;99.90
25825;DHT22;13658;44.534;18.694;2022-08-01T06:03:44;21.40;99.90
25825;DHT22;13658;44.534;18.694;2022-08-01T06:06:10;21.60;99.90
25825;DHT22;13658;44.534;18.694;2022-08-01T06:08:36;21.70;99.90
25825;DHT22;13658;44.534;18.694;2022-08-01T06:11:02;21.90;99.90
25825;DHT22;13658;44.534;18.694;2022-08-01T06:13:28;22.00;99.90
25825;DHT22;13658;44.534;18.694;2022-08-01T06:15:54;22.30;99.90
25825;DHT22;13658;44.534;18.694;2022-08-01T06:18:20;22.70;99.90
25825;DHT22;13658;44.534;18.694;2022-08-01T06:20:46;22.90;99.90
25825;DHT22;13658;44.534;18.694;2022-08-01T06:23:12;23.10;99.90
25825;DHT22;13658;44.534;18.694;2022-08-01T06:25:39;23.40;99.90
25825;DHT22;13658;44.534;18.694;2022-08-01T06:28:05;23.60;99.90
25825;DHT22;13658;44.534;18.694;2022-08-01T06:30:31;23.80;99.90
25825;DHT22;13658;44.534;18.694;2022-08-01T06:32:57;24.00;99.90
25825;DHT22;13658;44.534;18.694;2022-08-01T06:35:24;24.20;99.90
25825;DHT22;13658;44.534;18.694;2022-08-01T06:37:50;24.30;99.90
25825;DHT22;13658;44.534;18.694;2022-08-01T06:40:16;24.40;99.90
25825;DHT22;13658;44.534;18.694;2022-08-01T06:42:42;24.70;99.90
25825;DHT22;13658;44.534;18.694;2022-08-01T06:45:10;24.90;99.90
25825;DHT22;13658;44.534;18.694;2022-08-01T06:47:37;25.20;99.90
25825;DHT22;13658;44.534;18.694;2022-08-01T06:50:07;25.20;99.90
25825;DHT22;13658;44.534;18.694;2022-08-01T06:52:34;25.30;99.90
25825;DHT22;13658;44.534;18.694;2022-08-01T06:55:00;24.50;99.90
25825;DHT22;13658;44.534;18.694;2022-08-01T06:57:26;25.00;99.90
25825;DHT22;13658;44.534;18.694;2022-08-01T06:59:54;25.40;99.90
25825;DHT22;13658;44.534;18.694;2022-08-01T07:02:20;25.70;99.90
25825;DHT22;13658;44.534;18.694;2022-08-01T07:04:46;25.90;99.90
25825;DHT22;13658;44.534;18.694;2022-08-01T07:07:12;26.30;99.90
25825;DHT22;13658;44.534;18.694;2022-08-01T07:09:37;26.20;99.90
25825;DHT22;13658;44.534;18.694;2022-08-01T07:12:06;26.40;99.90
25825;DHT22;13658;44.534;18.694;2022-08-01T07:14:32;26.10;99.90
25825;DHT22;13658;44.534;18.694;2022-08-01T07:16:58;25.40;99.90
25825;DHT22;13658;44.534;18.694;2022-08-01T07:19:25;25.70;99.90
25825;DHT22;13658;44.534;18.694;2022-08-01T07:21:51;26.10;99.90
25825;DHT22;13658;44.534;18.694;2022-08-01T07:24:17;26.60;99.90
25825;DHT22;13658;44.534;18.694;2022-08-01T07:26:45;26.50;99.90
25825;DHT22;13658;44.534;18.694;2022-08-01T07:29:11;26.50;99.90
25825;DHT22;13658;44.534;18.694;2022-08-01T07:31:37;26.50;99.90
25825;DHT22;13658;44.534;18.694;2022-08-01T07:34:04;26.50;99.90
25825;DHT22;13658;44.534;18.694;2022-08-01T07:36:29;26.30;99.90
25825;DHT22;13658;44.534;18.694;2022-08-01T07:38:55;26.60;99.90
25825;DHT22;13658;44.534;18.694;2022-08-01T07:41:22;26.90;99.90
25825;DHT22;13658;44.534;18.694;2022-08-01T07:43:48;27.20;99.90
25825;DHT22;13658;44.534;18.694;2022-08-01T07:46:15;27.40;99.90
25825;DHT22;13658;44.534;18.694;2022-08-01T07:48:42;27.90;99.90
25825;DHT22;13658;44.534;18.694;2022-08-01T07:51:08;28.20;99.90
25825;DHT22;13658;44.534;18.694;2022-08-01T07:53:36;28.00;99.90
25825;DHT22;13658;44.534;18.694;2022-08-01T07:56:03;28.20;99.90
25825;DHT22;13658;44.534;18.694;2022-08-01T07:58:31;28.20;99.90
25825;DHT22;13658;44.534;18.694;2022-08-01T08:00:57;28.40;99.90
25825;DHT22;13658;44.534;18.694;2022-08-01T08:03:24;28.30;99.90
25825;DHT22;13658;44.534;18.694;2022-08-01T08:05:51;28.60;99.90
25825;DHT22;13658;44.534;18.694;2022-08-01T08:08:17;29.40;99.90
25825;DHT22;13658;44.534;18.694;2022-08-01T08:10:44;29.30;99.90
25825;DHT22;13658;44.534;18.694;2022-08-01T08:13:10;29.00;99.90
25825;DHT22;13658;44.534;18.694;2022-08-01T08:15:36;29.20;99.90
25825;DHT22;13658;44.534;18.694;2022-08-01T08:18:03;28.50;99.90
25825;DHT22;13658;44.534;18.694;2022-08-01T08:20:29;28.30;99.90
25825;DHT22;13658;44.534;18.694;2022-08-01T08:22:56;28.90;99.90
25825;DHT22;13658;44.534;18.694;2022-08-01T08:25:24;29.70;99.90
25825;DHT22;13658;44.534;18.694;2022-08-01T08:27:51;29.60;99.90
25825;DHT22;13658;44.534;18.694;2022-08-01T08:30:17;30.00;99.90
25825;DHT22;13658;44.534;18.694;2022-08-01T08:32:44;30.00;99.90
25825;DHT22;13658;44.534;18.694;2022-08-01T08:35:10;30.10;99.90
25825;DHT22;13658;44.534;18.694;2022-08-01T08:37:37;30.30;99.90
25825;DHT22;13658;44.534;18.694;2022-08-01T08:40:04;29.30;99.90
25825;DHT22;13658;44.534;18.694;2022-08-01T08:42:30;29.50;99.90
25825;DHT22;13658;44.534;18.694;2022-08-01T08:44:56;30.20;99.90
25825;DHT22;13658;44.534;18.694;2022-08-01T08:47:24;30.30;99.90
25825;DHT22;13658;44.534;18.694;2022-08-01T08:49:53;30.40;99.90
25825;DHT22;13658;44.534;18.694;2022-08-01T08:52:21;30.30;99.90
25825;DHT22;13658;44.534;18.694;2022-08-01T08:54:48;30.40;99.90
25825;DHT22;13658;44.534;18.694;2022-08-01T08:57:15;30.80;99.90
25825;DHT22;13658;44.534;18.694;2022-08-01T08:59:44;31.40;99.90
25825;DHT22;13658;44.534;18.694;2022-08-01T09:02:11;31.20;99.90
25825;DHT22;13658;44.534;18.694;2022-08-01T09:04:38;31.10;99.90
25825;DHT22;13658;44.534;18.694;2022-08-01T09:07:06;31.20;99.90
25825;DHT22;13658;44.534;18.694;2022-08-01T09:09:32;31.10;99.90
25825;DHT22;13658;44.534;18.694;2022-08-01T09:11:58;31.40;99.90
25825;DHT22;13658;44.534;18.694;2022-08-01T09:14:26;31.50;99.90
25825;DHT22;13658;44.534;18.694;2022-08-01T09:17:03;31.00;99.90
25825;DHT22;13658;44.534;18.694;2022-08-01T09:19:43;31.30;99.90
25825;DHT22;13658;44.534;18.694;2022-08-01T09:22:12;32.20;99.90
25825;DHT22;13658;44.534;18.694;2022-08-01T09:24:39;32.20;99.90
25825;DHT22;13658;44.534;18.694;2022-08-01T09:27:20;32.50;99.90
25825;DHT22;13658;44.534;18.694;2022-08-01T09:29:51;32.20;99.90
25825;DHT22;13658;44.534;18.694;2022-08-01T09:32:18;32.30;99.90
25825;DHT22;13658;44.534;18.694;2022-08-01T09:34:44;31.60;99.90
25825;DHT22;13658;44.534;18.694;2022-08-01T09:37:12;31.50;99.90
25825;DHT22;13658;44.534;18.694;2022-08-01T09:39:43;32.40;99.90
25825;DHT22;13658;44.534;18.694;2022-08-01T09:42:25;32.40;99.90
25825;DHT22;13658;44.534;18.694;2022-08-01T09:44:52;31.80;99.90
25825;DHT22;13658;44.534;18.694;2022-08-01T09:47:19;31.90;99.90
25825;DHT22;13658;44.534;18.694;2022-08-01T09:49:54;30.80;99.90
25825;DHT22;13658;44.534;18.694;2022-08-01T09:52:20;31.00;99.90
25825;DHT22;13658;44.534;18.694;2022-08-01T09:54:55;30.80;99.90
25825;DHT22;13658;44.534;18.694;2022-08-01T09:57:22;31.40;99.90
25825;DHT22;13658;44.534;18.694;2022-08-01T09:59:50;32.20;99.90
25825;DHT22;13658;44.534;18.694;2022-08-01T10:02:46;32.80;99.90
25825;DHT22;13658;44.534;18.694;2022-08-01T10:05:12;32.50;99.90
25825;DHT22;13658;44.534;18.694;2022-08-01T10:08:02;32.70;99.90
25825;DHT22;13658;44.534;18.694;2022-08-01T10:10:29;32.90;99.90
25825;DHT22;13658;44.534;18.694;2022-08-01T10:12:57;32.80;99.90
25825;DHT22;13658;44.534;18.694;2022-08-01T10:15:25;32.70;99.90
25825;DHT22;13658;44.534;18.694;2022-08-01T10:17:58;33.10;99.90
25825;DHT22;13658;44.534;18.694;2022-08-01T10:20:31;33.60;99.90
25825;DHT22;13658;44.534;18.694;2022-08-01T10:23:03;33.30;99.90
25825;DHT22;13658;44.534;18.694;2022-08-01T10:25:37;32.60;99.90
25825;DHT22;13658;44.534;18.694;2022-08-01T10:28:13;31.50;99.90
25825;DHT22;13658;44.534;18.694;2022-08-01T10:30:44;31.80;99.90
25825;DHT22;13658;44.534;18.694;2022-08-01T10:33:12;31.40;99.90
25825;DHT22;13658;44.534;18.694;2022-08-01T10:35:39;31.50;99.90
25825;DHT22;13658;44.534;18.694;2022-08-01T10:38:05;31.60;99.90
25825;DHT22;13658;44.534;18.694;2022-08-01T10:40:32;33.00;99.90
25825;DHT22;13658;44.534;18.694;2022-08-01T10:42:58;33.50;99.90
25825;DHT22;13658;44.534;18.694;2022-08-01T10:45:24;33.40;99.90
25825;DHT22;13658;44.534;18.694;2022-08-01T10:48:02;33.50;99.90
25825;DHT22;13658;44.534;18.694;2022-08-01T10:50:44;34.30;99.90
25825;DHT22;13658;44.534;18.694;2022-08-01T10:58:23;33.70;99.90
25825;DHT22;13658;44.534;18.694;2022-08-01T11:09:24;32.40;99.90
25825;DHT22;13658;44.534;18.694;2022-08-01T11:12:12;31.20;99.90
25825;DHT22;13658;44.534;18.694;2022-08-01T11:17:36;30.90;99.90
25825;DHT22;13658;44.534;18.694;2022-08-01T11:20:23;30.60;99.90
25825;DHT22;13658;44.534;18.694;2022-08-01T11:38:42;30.10;99.90
25825;DHT22;13658;44.534;18.694;2022-08-01T11:41:28;30.10;99.90
25825;DHT22;13658;44.534;18.694;2022-08-01T11:44:06;30.40;99.90
25825;DHT22;13658;44.534;18.694;2022-08-01T11:51:59;30.90;99.90
25825;DHT22;13658;44.534;18.694;2022-08-01T11:54:34;31.10;99.90
25825;DHT22;13658;44.534;18.694;2022-08-01T11:57:06;31.10;99.90
25825;DHT22;13658;44.534;18.694;2022-08-01T11:59:53;31.20;99.90
25825;DHT22;13658;44.534;18.694;2022-08-01T12:02:22;30.50;99.90
25825;DHT22;13658;44.534;18.694;2022-08-01T12:04:58;30.60;99.90
25825;DHT22;13658;44.534;18.694;2022-08-01T12:07:27;30.90;99.90
25825;DHT22;13658;44.534;18.694;2022-08-01T12:09:59;30.60;99.90
25825;DHT22;13658;44.534;18.694;2022-08-01T12:12:27;30.50;99.90
25825;DHT22;13658;44.534;18.694;2022-08-01T12:14:57;30.30;99.90
25825;DHT22;13658;44.534;18.694;2022-08-01T12:17:37;30.10;99.90
25825;DHT22;13658;44.534;18.694;2022-08-01T12:20:05;30.10;99.90
25825;DHT22;13658;44.534;18.694;2022-08-01T12:22:32;30.00;99.90
25825;DHT22;13658;44.534;18.694;2022-08-01T12:25:24;30.20;99.90
25825;DHT22;13658;44.534;18.694;2022-08-01T12:27:51;30.30;99.90
25825;DHT22;13658;44.534;18.694;2022-08-01T12:30:21;30.50;99.90
25825;DHT22;13658;44.534;18.694;2022-08-01T12:32:51;30.50;99.90
25825;DHT22;13658;44.534;18.694;2022-08-01T12:35:20;30.80;99.90
25825;DHT22;13658;44.534;18.694;2022-08-01T12:42:48;30.50;99.90
25825;DHT22;13658;44.534;18.694;2022-08-01T12:45:42;30.30;99.90
25825;DHT22;13658;44.534;18.694;2022-08-01T12:48:12;30.10;99.90
25825;DHT22;13658;44.534;18.694;2022-08-01T12:50:41;29.80;99.90
25825;DHT22;13658;44.534;18.694;2022-08-01T12:53:08;29.60;99.90
25825;DHT22;13658;44.534;18.694;2022-08-01T12:55:53;29.70;99.90
25825;DHT22;13658;44.534;18.694;2022-08-01T12:58:20;29.90;99.90
25825;DHT22;13658;44.534;18.694;2022-08-01T13:00:49;30.00;99.90
25825;DHT22;13658;44.534;18.694;2022-08-01T13:03:19;30.00;99.90
25825;DHT22;13658;44.534;18.694;2022-08-01T13:05:57;30.10;99.90
25825;DHT22;13658;44.534;18.694;2022-08-01T13:08:31;30.20;99.90
25825;DHT22;13658;44.534;18.694;2022-08-01T13:11:06;30.30;99.90
25825;DHT22;13658;44.534;18.694;2022-08-01T13:13:57;30.10;99.90
25825;DHT22;13658;44.534;18.694;2022-08-01T13:16:25;29.90;99.90
25825;DHT22;13658;44.534;18.694;2022-08-01T13:18:52;29.90;99.90
25825;DHT22;13658;44.534;18.694;2022-08-01T13:21:22;29.90;99.90
25825;DHT22;13658;44.534;18.694;2022-08-01T13:24:22;29.90;99.90
25825;DHT22;13658;44.534;18.694;2022-08-01T13:26:57;29.90;99.90
25825;DHT22;13658;44.534;18.694;2022-08-01T13:29:52;30.10;99.90
25825;DHT22;13658;44.534;18.694;2022-08-01T13:32:20;30.40;99.90
25825;DHT22;13658;44.534;18.694;2022-08-01T13:34:47;30.20;99.90
25825;DHT22;13658;44.534;18.694;2022-08-01T13:37:13;30.10;99.90
25825;DHT22;13658;44.534;18.694;2022-08-01T13:39:43;30.20;99.90
25825;DHT22;13658;44.534;18.694;2022-08-01T13:42:14;30.10;99.90
25825;DHT22;13658;44.534;18.694;2022-08-01T13:44:41;30.10;99.90
25825;DHT22;13658;44.534;18.694;2022-08-01T13:47:07;29.80;99.90
25825;DHT22;13658;44.534;18.694;2022-08-01T13:49:34;30.00;99.90
25825;DHT22;13658;44.534;18.694;2022-08-01T13:52:00;30.10;99.90
25825;DHT22;13658;44.534;18.694;2022-08-01T13:54:26;30.20;99.90
25825;DHT22;13658;44.534;18.694;2022-08-01T13:56:53;30.30;99.90
25825;DHT22;13658;44.534;18.694;2022-08-01T13:59:19;30.30;99.90
25825;DHT22;13658;44.534;18.694;2022-08-01T14:01:45;30.00;99.90
25825;DHT22;13658;44.534;18.694;2022-08-01T14:04:12;30.00;99.90
25825;DHT22;13658;44.534;18.694;2022-08-01T14:06:38;30.00;99.90
25825;DHT22;13658;44.534;18.694;2022-08-01T14:09:05;30.20;99.90
25825;DHT22;13658;44.534;18.694;2022-08-01T14:11:31;30.00;99.90
25825;DHT22;13658;44.534;18.694;2022-08-01T14:13:58;29.80;99.90
25825;DHT22;13658;44.534;18.694;2022-08-01T14:16:24;29.70;99.90
25825;DHT22;13658;44.534;18.694;2022-08-01T14:18:50;29.70;99.90
25825;DHT22;13658;44.534;18.694;2022-08-01T14:21:16;29.80;99.90
25825;DHT22;13658;44.534;18.694;2022-08-01T14:23:42;30.00;99.90
25825;DHT22;13658;44.534;18.694;2022-08-01T14:26:09;30.00;99.90
25825;DHT22;13658;44.534;18.694;2022-08-01T14:28:36;30.00;99.90
25825;DHT22;13658;44.534;18.694;2022-08-01T14:31:03;30.00;99.90
25825;DHT22;13658;44.534;18.694;2022-08-01T14:33:32;29.70;99.90
25825;DHT22;13658;44.534;18.694;2022-08-01T14:35:58;29.80;99.90
25825;DHT22;13658;44.534;18.694;2022-08-01T14:38:24;29.80;99.90
25825;DHT22;13658;44.534;18.694;2022-08-01T14:40:50;29.80;99.90
25825;DHT22;13658;44.534;18.694;2022-08-01T14:43:19;29.70;99.90
25825;DHT22;13658;44.534;18.694;2022-08-01T14:45:47;29.80;99.90
25825;DHT22;13658;44.534;18.694;2022-08-01T14:48:18;29.80;99.90
25825;DHT22;13658;44.534;18.694;2022-08-01T14:50:44;29.70;99.90
25825;DHT22;13658;44.534;18.694;2022-08-01T14:53:10;29.80;99.90
25825;DHT22;13658;44.534;18.694;2022-08-01T14:55:36;29.50;99.90
25825;DHT22;13658;44.534;18.694;2022-08-01T14:58:02;29.40;99.90
25825;DHT22;13658;44.534;18.694;2022-08-01T15:00:28;29.50;99.90
25825;DHT22;13658;44.534;18.694;2022-08-01T15:02:54;29.50;99.90
25825;DHT22;13658;44.534;18.694;2022-08-01T15:05:20;29.60;99.90
25825;DHT22;13658;44.534;18.694;2022-08-01T15:07:46;29.70;99.90
25825;DHT22;13658;44.534;18.694;2022-08-01T15:10:13;29.60;99.90
25825;DHT22;13658;44.534;18.694;2022-08-01T15:12:39;29.60;99.90
25825;DHT22;13658;44.534;18.694;2022-08-01T15:15:06;29.60;99.90
25825;DHT22;13658;44.534;18.694;2022-08-01T15:17:32;29.60;99.90
25825;DHT22;13658;44.534;18.694;2022-08-01T15:20:00;29.50;99.90
25825;DHT22;13658;44.534;18.694;2022-08-01T15:22:28;29.60;99.90
25825;DHT22;13658;44.534;18.694;2022-08-01T15:24:56;29.60;99.90
25825;DHT22;13658;44.534;18.694;2022-08-01T15:27:23;29.60;99.90
25825;DHT22;13658;44.534;18.694;2022-08-01T15:29:49;29.60;99.90
25825;DHT22;13658;44.534;18.694;2022-08-01T15:32:16;29.40;99.90
25825;DHT22;13658;44.534;18.694;2022-08-01T15:34:42;29.10;99.90
25825;DHT22;13658;44.534;18.694;2022-08-01T15:37:09;29.20;99.90
25825;DHT22;13658;44.534;18.694;2022-08-01T15:39:36;29.20;99.90
25825;DHT22;13658;44.534;18.694;2022-08-01T15:42:11;29.20;99.90
25825;DHT22;13658;44.534;18.694;2022-08-01T15:44:38;29.10;99.90
25825;DHT22;13658;44.534;18.694;2022-08-01T15:47:04;29.10;99.90
25825;DHT22;13658;44.534;18.694;2022-08-01T15:49:31;29.20;99.90
25825;DHT22;13658;44.534;18.694;2022-08-01T15:51:57;29.10;99.90
25825;DHT22;13658;44.534;18.694;2022-08-01T15:54:23;29.20;99.90
25825;DHT22;13658;44.534;18.694;2022-08-01T15:56:50;29.20;99.90
25825;DHT22;13658;44.534;18.694;2022-08-01T15:59:16;29.10;99.90
25825;DHT22;13658;44.534;18.694;2022-08-01T16:01:42;29.10;99.90
25825;DHT22;13658;44.534;18.694;2022-08-01T16:04:08;29.10;99.90
25825;DHT22;13658;44.534;18.694;2022-08-01T16:06:35;29.20;99.90
25825;DHT22;13658;44.534;18.694;2022-08-01T16:09:03;29.20;99.90
25825;DHT22;13658;44.534;18.694;2022-08-01T16:11:29;29.20;99.90
25825;DHT22;13658;44.534;18.694;2022-08-01T16:13:56;29.20;99.90
25825;DHT22;13658;44.534;18.694;2022-08-01T16:16:23;29.20;99.90
25825;DHT22;13658;44.534;18.694;2022-08-01T16:18:49;29.20;99.90